createdAt,value
2023-02-19T00:01:36.994Z,99319.42
2023-02-19T00:04:09.404Z,99323.31
2023-02-19T00:06:36.288Z,99327.13
2023-02-19T00:09:05.159Z,99327.17
2023-02-19T00:11:34.137Z,99321.04
2023-02-19T00:14:01.496Z,99321.11
2023-02-19T00:16:30.519Z,99329.44
2023-02-19T00:18:58.813Z,99323.54
2023-02-19T00:21:25.674Z,99324.91
2023-02-19T00:23:54.539Z,99324.21
2023-02-19T00:26:21.633Z,99327.90
2023-02-19T00:28:50.049Z,99332.52
2023-02-19T00:31:34.042Z,99329.71
2023-02-19T00:34:04.647Z,99327.38
2023-02-19T00:36:32.358Z,99332.34
2023-02-19T00:38:59.259Z,99329.67
2023-02-19T00:41:27.020Z,99328.40
2023-02-19T00:43:58.369Z,99328.61
2023-02-19T00:46:30.215Z,99331.23
2023-02-19T00:48:57.267Z,99337.77
2023-02-19T00:51:26.265Z,99338.92
2023-02-19T00:53:53.242Z,99334.30
2023-02-19T00:56:20.206Z,99334.30
2023-02-19T00:58:47.140Z,99336.65
2023-02-19T01:01:14.125Z,99337.73
2023-02-19T01:03:41.021Z,99339.36
2023-02-19T01:06:09.433Z,99342.05
2023-02-19T01:08:36.812Z,99343.82
2023-02-19T01:11:05.251Z,99349.08
2023-02-19T01:13:33.178Z,99352.66
2023-02-19T01:16:24.759Z,99350.48
2023-02-19T01:18:52.703Z,99360.92
2023-02-19T01:21:21.931Z,99357.41
2023-02-19T01:23:50.251Z,99363.60
2023-02-19T01:26:18.972Z,99360.59
2023-02-19T01:28:47.831Z,99367.13
2023-02-19T01:31:20.086Z,99367.96
2023-02-19T01:33:47.403Z,99363.15
2023-02-19T01:36:14.688Z,99362.92
2023-02-19T01:38:41.498Z,99359.10
2023-02-19T01:41:11.565Z,99356.70
2023-02-19T01:44:10.994Z,99364.94
2023-02-19T01:46:39.329Z,99371.45
2023-02-19T01:49:19.432Z,99371.08
2023-02-19T01:51:50.031Z,99375.73
2023-02-19T01:54:20.271Z,99371.92
2023-02-19T01:57:01.385Z,99368.84
2023-02-19T01:59:29.221Z,99370.64
2023-02-19T02:01:56.800Z,99374.33
2023-02-19T02:04:23.919Z,99377.81
2023-02-19T02:06:54.845Z,99383.00
2023-02-19T02:09:44.799Z,99383.75
2023-02-19T02:12:13.552Z,99388.37
2023-02-19T02:14:42.806Z,99383.02
2023-02-19T02:17:29.810Z,99383.66
2023-02-19T02:20:21.741Z,99393.45
2023-02-19T02:22:55.763Z,99402.83
2023-02-19T02:25:47.533Z,99405.64
2023-02-19T02:28:36.918Z,99412.99
2023-02-19T02:31:06.364Z,99412.61
2023-02-19T02:33:39.476Z,99418.64
2023-02-19T02:36:12.188Z,99417.05
2023-02-19T02:38:41.404Z,99418.20
2023-02-19T02:41:08.593Z,99421.83
2023-02-19T02:43:36.268Z,99424.03
2023-02-19T02:46:04.291Z,99424.46
2023-02-19T02:48:45.781Z,99426.67
2023-02-19T02:51:23.428Z,99424.00
2023-02-19T02:54:30.931Z,99426.91
2023-02-19T02:56:59.826Z,99427.88
2023-02-19T02:59:31.057Z,99435.46
2023-02-19T03:02:12.085Z,99440.85
2023-02-19T03:05:18.895Z,99441.41
2023-02-19T03:07:55.512Z,99449.81
2023-02-19T03:10:26.034Z,99454.68
2023-02-19T03:13:12.528Z,99458.75
2023-02-19T03:16:01.616Z,99460.55
2023-02-19T03:18:49.826Z,99463.52
2023-02-19T03:21:16.932Z,99467.88
2023-02-19T03:24:02.494Z,99464.71
2023-02-19T03:26:36.113Z,99468.71
2023-02-19T03:29:25.442Z,99467.50
2023-02-19T03:32:16.956Z,99464.02
2023-02-19T03:34:47.721Z,99475.05
2023-02-19T03:37:41.761Z,99476.02
2023-02-19T03:40:09.114Z,99475.11
2023-02-19T03:42:42.592Z,99475.09
2023-02-19T03:45:19.301Z,99481.70
2023-02-19T03:48:10.558Z,99482.09
2023-02-19T03:51:15.427Z,99487.89
2023-02-19T03:53:49.312Z,99495.27
2023-02-19T03:56:25.506Z,99503.20
2023-02-19T03:58:55.453Z,99506.70
2023-02-19T04:01:31.046Z,99507.89
2023-02-19T04:04:04.391Z,99511.54
2023-02-19T04:06:32.851Z,99507.88
2023-02-19T04:09:03.124Z,99508.34
2023-02-19T04:11:30.289Z,99511.38
2023-02-19T04:14:02.855Z,99507.95
2023-02-19T04:16:30.237Z,99504.09
2023-02-19T04:19:08.631Z,99506.52
2023-02-19T04:21:35.988Z,99507.23
2023-02-19T04:24:07.671Z,99507.98
2023-02-19T04:26:35.315Z,99506.45
2023-02-19T04:29:02.134Z,99504.66
2023-02-19T04:31:29.822Z,99514.80
2023-02-19T04:33:56.647Z,99518.85
2023-02-19T04:36:23.465Z,99523.95
2023-02-19T04:38:50.479Z,99529.69
2023-02-19T04:41:18.157Z,99533.79
2023-02-19T04:43:44.975Z,99531.85
2023-02-19T04:46:12.130Z,99541.41
2023-02-19T04:48:39.257Z,99547.60
2023-02-19T04:51:06.805Z,99545.57
2023-02-19T04:53:34.591Z,99544.55
2023-02-19T04:56:06.642Z,99554.02
2023-02-19T04:58:33.843Z,99554.85
2023-02-19T05:01:00.789Z,99555.37
2023-02-19T05:03:27.658Z,99557.90
2023-02-19T05:05:54.638Z,99558.16
2023-02-19T05:08:21.616Z,99560.11
2023-02-19T05:10:48.413Z,99561.05
2023-02-19T05:13:18.497Z,99571.17
2023-02-19T05:16:15.525Z,99580.22
2023-02-19T05:18:43.253Z,99582.89
2023-02-19T05:21:10.709Z,99581.53
2023-02-19T05:23:38.607Z,99584.27
2023-02-19T05:26:11.117Z,99587.41
2023-02-19T05:28:38.773Z,99589.70
2023-02-19T05:31:07.196Z,99587.57
2023-02-19T05:33:37.329Z,99582.95
2023-02-19T05:36:09.259Z,99586.13
2023-02-19T05:38:37.258Z,99587.86
2023-02-19T05:41:18.760Z,99588.96
2023-02-19T05:43:46.340Z,99594.24
2023-02-19T05:46:15.565Z,99594.88
2023-02-19T05:48:43.046Z,99602.69
2023-02-19T05:51:15.037Z,99606.22
2023-02-19T05:53:42.196Z,99607.77
2023-02-19T05:56:36.908Z,99608.23
2023-02-19T05:59:17.154Z,99610.95
2023-02-19T06:01:44.372Z,99611.43
2023-02-19T06:04:13.357Z,99616.27
2023-02-19T06:06:40.195Z,99616.40
2023-02-19T06:09:07.164Z,99619.55
2023-02-19T06:11:34.171Z,99615.59
2023-02-19T06:14:03.314Z,99623.17
2023-02-19T06:16:33.780Z,99623.01
2023-02-19T06:19:03.750Z,99630.20
2023-02-19T06:21:32.111Z,99624.73
2023-02-19T06:24:06.519Z,99621.08
2023-02-19T06:26:36.182Z,99615.06
2023-02-19T06:29:03.441Z,99614.55
2023-02-19T06:31:33.342Z,99610.34
2023-02-19T06:34:04.373Z,99607.91
2023-02-19T06:36:31.582Z,99612.02
2023-02-19T06:39:02.668Z,99617.18
2023-02-19T06:41:30.062Z,99611.02
2023-02-19T06:43:57.761Z,99611.23
2023-02-19T06:46:25.545Z,99606.66
2023-02-19T06:48:52.466Z,99609.39
2023-02-19T06:51:26.758Z,99613.32
2023-02-19T06:53:55.513Z,99617.29
2023-02-19T06:56:31.351Z,99620.08
2023-02-19T06:58:59.673Z,99617.09
2023-02-19T07:01:33.533Z,99617.34
2023-02-19T07:04:01.731Z,99616.61
2023-02-19T07:06:28.944Z,99619.26
2023-02-19T07:08:59.755Z,99613.69
2023-02-19T07:11:29.639Z,99614.61
2023-02-19T07:13:57.449Z,99612.56
2023-02-19T07:16:24.604Z,99613.61
2023-02-19T07:18:51.742Z,99610.48
2023-02-19T07:21:22.126Z,99610.30
2023-02-19T07:23:49.016Z,99607.86
2023-02-19T07:26:17.175Z,99608.66
2023-02-19T07:28:44.603Z,99612.63
2023-02-19T07:31:11.997Z,99614.13
2023-02-19T07:33:42.900Z,99613.84
2023-02-19T07:36:09.876Z,99611.23
2023-02-19T07:38:37.062Z,99617.83
2023-02-19T07:41:04.537Z,99619.57
2023-02-19T07:43:34.609Z,99618.45
2023-02-19T07:46:13.171Z,99621.43
2023-02-19T07:48:44.054Z,99627.48
2023-02-19T07:51:14.484Z,99630.49
2023-02-19T07:53:41.303Z,99626.64
2023-02-19T07:56:09.744Z,99621.88
2023-02-19T07:58:37.277Z,99622.03
2023-02-19T08:01:21.149Z,99624.17
2023-02-19T08:03:52.055Z,99625.61
2023-02-19T08:06:23.623Z,99625.69
2023-02-19T08:09:01.877Z,99624.50
2023-02-19T08:12:14.640Z,99620.95
2023-02-19T08:15:09.387Z,99618.55
2023-02-19T08:17:51.430Z,99626.01
2023-02-19T08:20:18.832Z,99629.61
2023-02-19T08:22:45.692Z,99636.59
2023-02-19T08:25:12.616Z,99639.15
2023-02-19T08:27:39.597Z,99634.89
2023-02-19T08:30:10.249Z,99640.75
2023-02-19T08:32:37.744Z,99647.30
2023-02-19T08:35:06.313Z,99638.63
2023-02-19T08:37:33.519Z,99648.06
2023-02-19T08:40:01.039Z,99655.14
2023-02-19T08:42:28.583Z,99652.52
2023-02-19T08:44:55.860Z,99647.94
2023-02-19T08:47:22.712Z,99653.71
2023-02-19T08:49:49.497Z,99641.16
2023-02-19T08:52:16.309Z,99650.98
2023-02-19T08:54:43.435Z,99648.73
2023-02-19T08:57:10.402Z,99659.49
2023-02-19T08:59:37.241Z,99655.96
2023-02-19T09:02:04.058Z,99656.58
2023-02-19T09:04:32.069Z,99659.41
2023-02-19T09:06:59.328Z,99664.89
2023-02-19T09:09:26.158Z,99653.80
2023-02-19T09:11:52.910Z,99656.55
2023-02-19T09:14:22.029Z,99643.30
2023-02-19T09:16:48.947Z,99631.01
2023-02-19T09:19:15.831Z,99639.67
2023-02-19T09:21:42.672Z,99643.21
2023-02-19T09:24:09.705Z,99633.11
2023-02-19T09:26:38.607Z,99635.13
2023-02-19T09:29:05.822Z,99637.90
2023-02-19T09:31:34.839Z,99636.92
2023-02-19T09:34:02.012Z,99632.27
2023-02-19T09:36:29.221Z,99638.48
2023-02-19T09:38:56.165Z,99645.58
2023-02-19T09:41:31.533Z,99646.66
2023-02-19T09:43:58.742Z,99653.25
2023-02-19T09:46:45.845Z,99643.14
2023-02-19T09:49:15.511Z,99640.09
2023-02-19T09:51:44.908Z,99659.91
2023-02-19T09:54:22.283Z,99641.55
2023-02-19T09:56:49.211Z,99630.89
2023-02-19T09:59:20.484Z,99623.23
2023-02-19T10:01:48.730Z,99611.02
2023-02-19T10:04:15.533Z,99603.44
2023-02-19T10:06:43.867Z,99593.65
2023-02-19T10:09:26.320Z,99592.25
2023-02-19T10:11:54.220Z,99591.90
2023-02-19T10:14:27.712Z,99594.45
2023-02-19T10:16:54.664Z,99588.75
2023-02-19T10:19:21.486Z,99589.05
2023-02-19T10:21:48.631Z,99589.02
2023-02-19T10:24:25.273Z,99584.34
2023-02-19T10:26:52.500Z,99585.39
2023-02-19T10:29:21.445Z,99580.67
2023-02-19T10:31:48.400Z,99579.59
2023-02-19T10:34:21.591Z,99575.91
2023-02-19T10:36:50.489Z,99579.71
2023-02-19T10:39:20.987Z,99566.09
2023-02-19T10:41:51.188Z,99567.81
2023-02-19T10:44:28.969Z,99558.05
2023-02-19T10:46:57.754Z,99553.04
2023-02-19T10:49:29.996Z,99541.21
2023-02-19T10:52:02.130Z,99541.69
2023-02-19T10:54:31.698Z,99528.76
2023-02-19T10:57:20.718Z,99522.54
2023-02-19T10:59:51.111Z,99519.20
2023-02-19T11:02:19.809Z,99517.79
2023-02-19T11:05:08.818Z,99515.52
2023-02-19T11:07:40.904Z,99509.29
2023-02-19T11:10:27.484Z,99500.11
2023-02-19T11:13:02.807Z,99487.73
2023-02-19T11:15:32.209Z,99494.17
2023-02-19T11:18:21.008Z,99484.02
2023-02-19T11:20:53.878Z,99483.77
2023-02-19T11:23:34.334Z,99486.27
2023-02-19T11:26:05.318Z,99484.63
2023-02-19T11:28:34.838Z,99487.98
2023-02-19T11:31:24.099Z,99487.61
2023-02-19T11:33:58.010Z,99479.64
2023-02-19T11:36:29.932Z,99480.70
2023-02-19T11:38:59.244Z,99481.83
2023-02-19T11:41:25.983Z,99481.09
2023-02-19T11:44:07.760Z,99482.23
2023-02-19T11:46:50.481Z,99481.98
2023-02-19T11:49:54.172Z,99482.57
2023-02-19T11:52:53.330Z,99477.95
2023-02-19T11:55:44.658Z,99476.28
2023-02-19T11:58:52.432Z,99480.82
2023-02-19T12:01:44.112Z,99480.95
2023-02-19T12:04:50.326Z,99483.25
2023-02-19T12:07:27.343Z,99486.23
2023-02-19T12:10:26.174Z,99493.60
2023-02-19T12:13:08.522Z,99496.99
2023-02-19T12:15:44.258Z,99500.02
2023-02-19T12:18:33.973Z,99495.32
2023-02-19T12:21:29.620Z,99492.80
2023-02-19T12:24:08.800Z,99495.75
2023-02-19T12:27:24.284Z,99500.58
2023-02-19T12:30:27.059Z,99489.54
2023-02-19T12:32:57.272Z,99485.67
2023-02-19T12:36:06.397Z,99480.63
2023-02-19T12:38:53.185Z,99478.25
2023-02-19T12:41:44.295Z,99482.91
2023-02-19T12:44:21.293Z,99482.85
2023-02-19T12:46:51.556Z,99483.88
2023-02-19T12:49:20.267Z,99481.54
2023-02-19T12:51:48.936Z,99487.06
2023-02-19T12:54:30.436Z,99486.67
2023-02-19T12:57:07.364Z,99494.02
2023-02-19T12:59:49.693Z,99497.44
2023-02-19T13:02:49.147Z,99490.16
2023-02-19T13:05:22.492Z,99490.77
2023-02-19T13:08:12.221Z,99494.95
2023-02-19T13:11:01.245Z,99493.80
2023-02-19T13:14:01.716Z,99497.82
2023-02-19T13:16:34.123Z,99505.52
2023-02-19T13:19:03.745Z,99498.88
2023-02-19T13:21:51.879Z,99498.44
2023-02-19T13:24:44.710Z,99498.42
2023-02-19T13:27:25.000Z,99496.13
2023-02-19T13:30:05.028Z,99495.48
2023-02-19T13:32:50.360Z,99496.35
2023-02-19T13:35:21.123Z,99485.95
2023-02-19T13:37:51.147Z,99486.05
2023-02-19T13:40:30.182Z,99487.02
2023-02-19T13:43:01.979Z,99487.02
2023-02-19T13:45:41.360Z,99482.16
2023-02-19T13:48:30.483Z,99488.85
2023-02-19T13:51:12.358Z,99487.48
2023-02-19T13:53:51.423Z,99487.80
2023-02-19T13:56:33.598Z,99488.87
2023-02-19T13:59:10.645Z,99489.71
2023-02-19T14:01:53.305Z,99494.77
2023-02-19T14:04:42.726Z,99497.69
2023-02-19T14:07:10.143Z,99490.17
2023-02-19T14:09:45.786Z,99488.77
2023-02-19T14:12:15.173Z,99490.46
2023-02-19T14:14:55.590Z,99489.97
2023-02-19T14:17:35.334Z,99487.80
2023-02-19T14:20:14.554Z,99487.56
2023-02-19T14:22:57.358Z,99484.13
2023-02-19T14:25:30.081Z,99484.89
2023-02-19T14:28:05.702Z,99483.34
2023-02-19T14:30:35.180Z,99484.46
2023-02-19T14:33:10.601Z,99486.19
2023-02-19T14:35:44.082Z,99485.45
2023-02-19T14:38:31.609Z,99487.30
2023-02-19T14:41:02.917Z,99489.74
2023-02-19T14:43:30.244Z,99490.27
2023-02-19T14:46:01.481Z,99489.02
2023-02-19T14:48:32.578Z,99483.33
2023-02-19T14:51:04.559Z,99478.98
2023-02-19T14:53:32.112Z,99481.85
2023-02-19T14:55:59.282Z,99477.77
2023-02-19T14:58:33.287Z,99478.06
2023-02-19T15:01:00.108Z,99484.14
2023-02-19T15:03:27.907Z,99489.27
2023-02-19T15:06:01.175Z,99492.23
2023-02-19T15:08:38.425Z,99493.35
2023-02-19T15:11:09.952Z,99493.80
2023-02-19T15:13:45.584Z,99499.89
2023-02-19T15:16:20.299Z,99502.26
2023-02-19T15:18:47.283Z,99504.75
2023-02-19T15:21:26.860Z,99505.21
2023-02-19T15:23:56.029Z,99511.52
2023-02-19T15:26:33.330Z,99506.83
2023-02-19T15:29:19.667Z,99510.58
2023-02-19T15:31:52.346Z,99510.02
2023-02-19T15:34:23.164Z,99511.50
2023-02-19T15:37:05.738Z,99512.11
2023-02-19T15:39:38.892Z,99518.79
2023-02-19T15:42:07.791Z,99522.90
2023-02-19T15:45:07.061Z,99522.70
2023-02-19T15:47:45.349Z,99522.61
2023-02-19T15:50:18.186Z,99527.27
2023-02-19T15:52:59.804Z,99525.52
2023-02-19T15:55:40.540Z,99525.29
2023-02-19T15:58:27.272Z,99530.05
2023-02-19T16:01:02.575Z,99534.27
2023-02-19T16:03:30.010Z,99536.70
2023-02-19T16:06:17.586Z,99534.10
2023-02-19T16:09:05.357Z,99542.64
2023-02-19T16:11:48.616Z,99543.38
2023-02-19T16:14:33.260Z,99545.91
2023-02-19T16:17:07.060Z,99549.38
2023-02-19T16:19:56.316Z,99550.56
2023-02-19T16:22:28.006Z,99552.05
2023-02-19T16:25:00.113Z,99551.30
2023-02-19T16:27:28.291Z,99547.89
2023-02-19T16:29:55.301Z,99551.58
2023-02-19T16:32:22.505Z,99552.02
2023-02-19T16:34:50.601Z,99556.18
2023-02-19T16:37:32.756Z,99557.41
2023-02-19T16:40:15.716Z,99551.09
2023-02-19T16:42:50.286Z,99552.52
2023-02-19T16:45:17.661Z,99552.55
2023-02-19T16:47:47.819Z,99551.05
2023-02-19T16:50:20.332Z,99553.17
2023-02-19T16:52:59.635Z,99550.89
2023-02-19T16:55:28.577Z,99550.72
2023-02-19T16:57:55.811Z,99555.54
2023-02-19T17:00:24.815Z,99557.13
2023-02-19T17:02:55.794Z,99558.19
2023-02-19T17:05:23.308Z,99557.02
2023-02-19T17:07:50.866Z,99560.36
2023-02-19T17:10:19.265Z,99557.88
2023-02-19T17:12:46.334Z,99558.50
2023-02-19T17:15:13.820Z,99559.73
2023-02-19T17:17:41.380Z,99562.20
2023-02-19T17:20:17.641Z,99561.35
2023-02-19T17:22:44.477Z,99562.89
2023-02-19T17:25:11.302Z,99560.98
2023-02-19T17:27:40.916Z,99561.92
2023-02-19T17:30:12.939Z,99556.17
2023-02-19T17:32:39.935Z,99551.36
2023-02-19T17:35:06.987Z,99546.20
2023-02-19T17:37:33.832Z,99539.37
2023-02-19T17:40:13.896Z,99530.12
2023-02-19T17:42:44.008Z,99522.58
2023-02-19T17:45:12.295Z,99530.14
2023-02-19T17:47:39.876Z,99538.84
2023-02-19T17:50:20.166Z,99539.70
2023-02-19T17:52:47.406Z,99542.45
2023-02-19T17:55:17.768Z,99546.23
2023-02-19T17:57:47.685Z,99548.75
2023-02-19T18:00:17.328Z,99550.78
2023-02-19T18:02:44.723Z,99552.31
2023-02-19T18:05:11.841Z,99549.88
2023-02-19T18:07:39.827Z,99553.86
2023-02-19T18:10:07.788Z,99552.09
2023-02-19T18:12:35.001Z,99551.11
2023-02-19T18:15:03.448Z,99552.98
2023-02-19T18:17:31.224Z,99547.29
2023-02-19T18:20:00.322Z,99554.28
2023-02-19T18:22:27.360Z,99559.17
2023-02-19T18:24:54.477Z,99558.67
2023-02-19T18:27:23.031Z,99557.80
2023-02-19T18:29:51.518Z,99559.80
2023-02-19T18:32:19.996Z,99563.01
2023-02-19T18:34:50.989Z,99564.98
2023-02-19T18:37:18.016Z,99562.02
2023-02-19T18:39:45.315Z,99566.05
2023-02-19T18:42:12.516Z,99565.35
2023-02-19T18:44:39.974Z,99566.35
2023-02-19T18:47:07.009Z,99572.55
2023-02-19T18:49:35.319Z,99575.52
2023-02-19T18:52:02.256Z,99574.08
2023-02-19T18:54:30.257Z,99586.96
2023-02-19T18:56:57.563Z,99593.46
2023-02-19T18:59:26.313Z,99603.33
2023-02-19T19:01:53.094Z,99603.38
2023-02-19T19:04:20.216Z,99610.26
2023-02-19T19:06:51.223Z,99604.95
2023-02-19T19:09:22.884Z,99604.93
2023-02-19T19:11:57.526Z,99608.44
2023-02-19T19:14:34.620Z,99608.70
2023-02-19T19:17:06.615Z,99615.07
2023-02-19T19:19:34.702Z,99612.06
2023-02-19T19:22:16.946Z,99616.83
2023-02-19T19:25:10.232Z,99618.42
2023-02-19T19:28:12.274Z,99622.02
2023-02-19T19:30:53.605Z,99625.62
2023-02-19T19:33:45.046Z,99630.13
2023-02-19T19:36:43.853Z,99633.25
2023-02-19T19:39:39.700Z,99640.34
2023-02-19T19:42:08.844Z,99645.60
2023-02-19T19:44:36.250Z,99654.89
2023-02-19T19:47:03.774Z,99655.70
2023-02-19T19:49:30.609Z,99662.16
2023-02-19T19:52:00.589Z,99669.83
2023-02-19T19:54:29.347Z,99670.46
2023-02-19T19:56:56.603Z,99672.77
2023-02-19T19:59:23.668Z,99675.29
2023-02-19T20:01:55.235Z,99678.88
2023-02-19T20:04:22.801Z,99680.38
2023-02-19T20:06:49.827Z,99681.58
2023-02-19T20:09:17.819Z,99684.30
2023-02-19T20:11:49.698Z,99683.20
2023-02-19T20:14:17.343Z,99689.27
2023-02-19T20:16:47.130Z,99692.77
2023-02-19T20:19:14.945Z,99693.92
2023-02-19T20:21:46.427Z,99694.41
2023-02-19T20:24:19.102Z,99695.75
2023-02-19T20:26:46.129Z,99704.92
2023-02-19T20:29:13.308Z,99708.60
2023-02-19T20:31:42.036Z,99708.86
2023-02-19T20:34:09.119Z,99713.46
2023-02-19T20:36:44.612Z,99712.81
2023-02-19T20:39:12.175Z,99718.55
2023-02-19T20:41:39.305Z,99722.55
2023-02-19T20:44:06.191Z,99723.41
2023-02-19T20:46:33.394Z,99729.05
2023-02-19T20:49:00.179Z,99734.13
2023-02-19T20:51:27.423Z,99735.77
2023-02-19T20:53:54.269Z,99743.23
2023-02-19T20:56:21.142Z,99747.61
2023-02-19T20:58:48.050Z,99750.20
2023-02-19T21:01:15.030Z,99753.70
2023-02-19T21:03:43.055Z,99759.55
2023-02-19T21:06:10.139Z,99758.86
2023-02-19T21:08:38.535Z,99762.44
2023-02-19T21:11:05.441Z,99762.23
2023-02-19T21:13:32.647Z,99772.21
2023-02-19T21:16:00.126Z,99766.95
2023-02-19T21:18:27.191Z,99766.66
2023-02-19T21:20:54.021Z,99768.80
2023-02-19T21:23:21.096Z,99764.01
2023-02-19T21:25:48.607Z,99770.06
2023-02-19T21:28:16.421Z,99771.94
2023-02-19T21:30:45.520Z,99775.23
2023-02-19T21:33:13.590Z,99780.54
2023-02-19T21:35:42.436Z,99776.40
2023-02-19T21:38:09.785Z,99785.14
2023-02-19T21:40:37.226Z,99781.48
2023-02-19T21:43:04.891Z,99787.52
2023-02-19T21:45:32.047Z,99793.54
2023-02-19T21:47:59.436Z,99793.96
2023-02-19T21:50:26.336Z,99797.23
2023-02-19T21:52:53.177Z,99803.63
2023-02-19T21:55:20.150Z,99804.15
2023-02-19T21:57:50.829Z,99811.28
2023-02-19T22:00:18.310Z,99806.98
2023-02-19T22:02:45.299Z,99813.67
2023-02-19T22:05:12.067Z,99812.66
2023-02-19T22:07:39.663Z,99817.06
2023-02-19T22:10:09.281Z,99821.06
2023-02-19T22:12:36.382Z,99822.00
2023-02-19T22:15:05.275Z,99816.19
2023-02-19T22:17:36.516Z,99818.73
2023-02-19T22:20:04.887Z,99817.56
2023-02-19T22:22:35.412Z,99820.92
2023-02-19T22:25:02.405Z,99817.09
2023-02-19T22:27:29.576Z,99817.80
2023-02-19T22:29:57.047Z,99826.13
2023-02-19T22:32:23.958Z,99819.23
2023-02-19T22:34:50.820Z,99821.29
2023-02-19T22:37:17.720Z,99823.79
2023-02-19T22:39:44.573Z,99820.69
2023-02-19T22:42:11.582Z,99821.10
2023-02-19T22:44:38.711Z,99819.39
2023-02-19T22:47:10.107Z,99818.72
2023-02-19T22:49:38.922Z,99820.06
2023-02-19T22:52:07.791Z,99822.77
2023-02-19T22:54:35.777Z,99824.61
2023-02-19T22:57:03.205Z,99826.46
2023-02-19T22:59:31.226Z,99827.38
2023-02-19T23:01:58.109Z,99828.01
2023-02-19T23:04:25.207Z,99830.38
2023-02-19T23:06:52.227Z,99830.20
2023-02-19T23:09:21.577Z,99836.41
2023-02-19T23:11:50.466Z,99834.58
2023-02-19T23:14:19.359Z,99836.48
2023-02-19T23:16:46.991Z,99840.83
2023-02-19T23:19:18.249Z,99846.23
2023-02-19T23:21:45.451Z,99845.35
2023-02-19T23:24:12.565Z,99845.96
2023-02-19T23:26:44.359Z,99846.80
2023-02-19T23:29:13.725Z,99853.80
2023-02-19T23:31:40.597Z,99854.02
2023-02-19T23:34:07.565Z,99854.52
2023-02-19T23:36:41.851Z,99855.10
2023-02-19T23:39:10.688Z,99861.28
2023-02-19T23:41:37.707Z,99859.86
2023-02-19T23:44:04.884Z,99864.55
2023-02-19T23:46:33.563Z,99863.19
2023-02-19T23:49:00.518Z,99865.86
2023-02-19T23:51:27.483Z,99867.33
2023-02-19T23:53:54.676Z,99865.52
2023-02-19T23:56:23.196Z,99860.53
2023-02-19T23:58:50.267Z,99860.23
